createdAt,value
2019-03-06T00:01:20.961Z,99012.58
2019-03-06T00:03:50.331Z,99012.20
2019-03-06T00:06:19.736Z,99008.25
2019-03-06T00:08:49.182Z,99013.13
2019-03-06T00:11:19.259Z,99003.63
2019-03-06T00:13:48.644Z,98991.84
2019-03-06T00:16:18.027Z,98998.61
2019-03-06T00:18:47.675Z,98993.57
2019-03-06T00:21:17.126Z,98985.15
2019-03-06T00:23:46.635Z,98992.41
2019-03-06T00:26:16.257Z,98984.05
2019-03-06T00:28:45.908Z,98988.27
2019-03-06T00:31:15.319Z,98976.28
2019-03-06T00:33:45.064Z,98978.66
2019-03-06T00:36:16.653Z,98973.53
2019-03-06T00:38:46.269Z,98970.02
2019-03-06T00:41:22.755Z,98965.27
2019-03-06T00:43:52.157Z,98968.23
2019-03-06T00:46:21.546Z,98964.22
2019-03-06T00:48:50.981Z,98964.22
2019-03-06T00:51:20.389Z,98957.66
2019-03-06T00:53:49.783Z,98955.43
2019-03-06T00:56:19.189Z,98954.67
2019-03-06T00:58:48.570Z,98950.17
2019-03-06T01:01:18.093Z,98947.16
2019-03-06T01:03:47.482Z,98944.08
2019-03-06T01:06:17.158Z,98941.29
2019-03-06T01:08:46.644Z,98948.27
2019-03-06T01:11:16.765Z,98944.40
2019-03-06T01:13:46.772Z,98938.00
2019-03-06T01:16:17.006Z,98946.97
2019-03-06T01:18:47.264Z,98942.75
2019-03-06T01:21:17.282Z,98935.72
2019-03-06T01:23:47.231Z,98933.18
2019-03-06T01:26:17.257Z,98927.56
2019-03-06T01:28:47.361Z,98925.41
2019-03-06T01:31:18.347Z,98929.34
2019-03-06T01:33:52.075Z,98924.90
2019-03-06T01:36:23.104Z,98919.98
2019-03-06T01:39:06.101Z,98917.29
2019-03-06T01:41:39.580Z,98904.61
2019-03-06T01:44:10.583Z,98906.04
2019-03-06T01:46:40.006Z,98908.52
2019-03-06T01:49:09.388Z,98910.95
2019-03-06T01:51:39.046Z,98905.37
2019-03-06T01:54:08.423Z,98899.84
2019-03-06T01:56:38.091Z,98894.74
2019-03-06T01:59:07.460Z,98884.44
2019-03-06T02:01:37.010Z,98887.80
2019-03-06T02:04:25.717Z,98883.61
2019-03-06T02:06:55.494Z,98877.23
2019-03-06T02:09:27.751Z,98873.68
2019-03-06T02:11:57.485Z,98878.08
2019-03-06T02:14:26.875Z,98873.73
2019-03-06T02:16:56.344Z,98863.07
2019-03-06T02:19:25.680Z,98856.31
2019-03-06T02:21:55.052Z,98855.48
2019-03-06T02:24:24.544Z,98848.00
2019-03-06T02:26:53.901Z,98836.73
2019-03-06T02:29:23.278Z,98834.77
2019-03-06T02:31:53.005Z,98839.69
2019-03-06T02:34:22.355Z,98841.02
2019-03-06T02:36:51.978Z,98842.67
2019-03-06T02:39:21.382Z,98840.67
2019-03-06T02:41:51.012Z,98833.91
2019-03-06T02:44:20.451Z,98827.91
2019-03-06T02:46:49.803Z,98830.84
2019-03-06T02:49:19.398Z,98826.47
2019-03-06T02:51:48.782Z,98815.21
2019-03-06T02:54:19.065Z,98803.89
2019-03-06T02:56:48.608Z,98806.17
2019-03-06T02:59:22.937Z,98807.99
2019-03-06T03:01:53.952Z,98810.90
2019-03-06T03:04:25.201Z,98803.52
2019-03-06T03:06:56.275Z,98807.70
2019-03-06T03:09:27.311Z,98798.22
2019-03-06T03:11:56.797Z,98798.86
2019-03-06T03:14:26.593Z,98802.48
2019-03-06T03:16:55.970Z,98799.59
2019-03-06T03:19:25.347Z,98801.56
2019-03-06T03:21:54.748Z,98798.30
2019-03-06T03:24:25.162Z,98790.74
2019-03-06T03:26:57.544Z,98783.96
2019-03-06T03:29:27.003Z,98779.86
2019-03-06T03:31:56.341Z,98781.70
2019-03-06T03:34:25.739Z,98773.72
2019-03-06T03:36:55.118Z,98768.52
2019-03-06T03:39:24.495Z,98762.95
2019-03-06T03:41:53.890Z,98754.23
2019-03-06T03:44:23.288Z,98747.84
2019-03-06T03:46:52.680Z,98743.14
2019-03-06T03:49:22.480Z,98731.99
2019-03-06T03:51:51.888Z,98733.05
2019-03-06T03:54:21.314Z,98726.77
2019-03-06T03:56:50.695Z,98718.03
2019-03-06T03:59:20.138Z,98711.34
2019-03-06T04:01:50.226Z,98712.67
2019-03-06T04:04:19.695Z,98708.71
2019-03-06T04:06:49.070Z,98709.07
2019-03-06T04:09:18.472Z,98712.91
2019-03-06T04:11:48.113Z,98710.00
2019-03-06T04:14:17.954Z,98712.33
2019-03-06T04:16:47.326Z,98708.58
2019-03-06T04:19:17.017Z,98718.95
2019-03-06T04:21:46.409Z,98730.48
2019-03-06T04:24:15.799Z,98733.41
2019-03-06T04:26:45.374Z,98726.87
2019-03-06T04:29:14.744Z,98730.27
2019-03-06T04:31:44.134Z,98721.09
2019-03-06T04:34:13.508Z,98724.25
2019-03-06T04:36:43.218Z,98720.77
2019-03-06T04:39:12.712Z,98720.21
2019-03-06T04:41:42.395Z,98721.80
2019-03-06T04:44:11.983Z,98715.56
2019-03-06T04:46:41.378Z,98711.02
2019-03-06T04:49:10.767Z,98710.83
2019-03-06T04:51:40.146Z,98699.97
2019-03-06T04:54:09.576Z,98699.25
2019-03-06T04:56:38.929Z,98690.03
2019-03-06T04:59:08.311Z,98677.69
2019-03-06T05:01:37.817Z,98670.83
2019-03-06T05:04:07.272Z,98672.26
2019-03-06T05:06:36.622Z,98671.19
2019-03-06T05:09:07.555Z,98654.39
2019-03-06T05:11:37.014Z,98653.57
2019-03-06T05:14:06.359Z,98643.52
2019-03-06T05:16:43.331Z,98648.38
2019-03-06T05:19:12.789Z,98648.51
2019-03-06T05:21:42.142Z,98643.55
2019-03-06T05:24:11.595Z,98623.36
2019-03-06T05:26:41.372Z,98620.86
2019-03-06T05:29:11.059Z,98616.43
2019-03-06T05:31:42.079Z,98608.43
2019-03-06T05:34:11.521Z,98600.23
2019-03-06T05:37:24.323Z,98596.34
2019-03-06T05:39:53.688Z,98596.06
2019-03-06T05:42:23.493Z,98588.77
2019-03-06T05:44:52.841Z,98605.05
2019-03-06T05:47:22.229Z,98602.73
2019-03-06T05:49:51.602Z,98593.19
2019-03-06T05:52:20.984Z,98589.70
2019-03-06T05:54:50.521Z,98579.11
2019-03-06T05:57:19.891Z,98569.84
2019-03-06T05:59:49.271Z,98565.92
2019-03-06T06:02:18.650Z,98557.14
2019-03-06T06:04:48.014Z,98554.92
2019-03-06T06:07:17.390Z,98559.09
2019-03-06T06:10:09.203Z,98556.12
2019-03-06T06:12:38.588Z,98557.36
2019-03-06T06:15:14.591Z,98548.28
2019-03-06T06:17:43.972Z,98551.41
2019-03-06T06:20:16.840Z,98555.05
2019-03-06T06:22:59.650Z,98554.66
2019-03-06T06:25:30.887Z,98551.28
2019-03-06T06:28:00.267Z,98541.58
2019-03-06T06:30:29.628Z,98538.00
2019-03-06T06:32:59.002Z,98529.06
2019-03-06T06:35:28.372Z,98523.44
2019-03-06T06:37:57.743Z,98523.78
2019-03-06T06:40:27.507Z,98528.97
2019-03-06T06:42:56.904Z,98509.84
2019-03-06T06:45:26.265Z,98504.27
2019-03-06T06:48:16.443Z,98488.89
2019-03-06T06:51:01.267Z,98483.17
2019-03-06T06:53:37.818Z,98490.13
2019-03-06T06:56:54.441Z,98486.32
2019-03-06T06:59:52.159Z,98479.77
2019-03-06T07:02:32.948Z,98480.95
2019-03-06T07:05:21.604Z,98484.09
2019-03-06T07:08:08.921Z,98480.22
2019-03-06T07:10:51.618Z,98477.06
2019-03-06T07:13:22.632Z,98475.77
2019-03-06T07:15:56.299Z,98471.39
2019-03-06T07:18:43.772Z,98466.73
2019-03-06T07:21:15.068Z,98464.89
2019-03-06T07:23:46.298Z,98454.84
2019-03-06T07:26:23.249Z,98446.69
2019-03-06T07:29:03.642Z,98438.30
2019-03-06T07:31:35.246Z,98434.46
2019-03-06T07:34:10.888Z,98443.27
2019-03-06T07:36:47.298Z,98443.16
2019-03-06T07:39:25.659Z,98437.67
2019-03-06T07:42:03.034Z,98420.08
2019-03-06T07:44:34.617Z,98417.78
2019-03-06T07:47:22.279Z,98418.53
2019-03-06T07:50:11.739Z,98419.44
2019-03-06T07:52:42.839Z,98418.18
2019-03-06T07:55:20.280Z,98405.23
2019-03-06T07:58:44.719Z,98403.97
2019-03-06T08:01:17.271Z,98397.41
2019-03-06T08:03:47.090Z,98387.88
2019-03-06T08:06:16.800Z,98391.77
2019-03-06T08:08:46.536Z,98380.49
2019-03-06T08:11:17.778Z,98364.59
2019-03-06T08:13:51.739Z,98364.47
2019-03-06T08:16:25.778Z,98365.00
2019-03-06T08:19:12.988Z,98361.33
2019-03-06T08:21:44.259Z,98363.20
2019-03-06T08:24:15.466Z,98353.05
2019-03-06T08:26:45.220Z,98364.01
2019-03-06T08:29:14.731Z,98356.09
2019-03-06T08:31:45.920Z,98354.56
2019-03-06T08:34:15.467Z,98349.70
2019-03-06T08:36:45.041Z,98352.38
2019-03-06T08:39:20.825Z,98345.47
2019-03-06T08:41:50.834Z,98342.02
2019-03-06T08:44:20.480Z,98337.11
2019-03-06T08:47:07.768Z,98331.86
2019-03-06T08:49:42.067Z,98320.49
2019-03-06T08:52:24.980Z,98307.55
2019-03-06T08:54:56.186Z,98312.57
2019-03-06T08:57:43.781Z,98306.15
2019-03-06T09:00:28.286Z,98300.97
2019-03-06T09:03:05.023Z,98295.92
2019-03-06T09:05:48.558Z,98297.47
2019-03-06T09:08:29.647Z,98299.60
2019-03-06T09:11:15.673Z,98296.19
2019-03-06T09:13:51.251Z,98291.61
2019-03-06T09:16:22.733Z,98294.94
2019-03-06T09:18:53.884Z,98287.92
2019-03-06T09:21:25.172Z,98291.02
2019-03-06T09:23:57.909Z,98292.39
2019-03-06T09:26:47.389Z,98291.83
2019-03-06T09:29:21.125Z,98294.28
2019-03-06T09:31:52.334Z,98291.06
2019-03-06T09:34:43.745Z,98288.56
2019-03-06T09:37:33.156Z,98288.58
2019-03-06T09:40:16.904Z,98282.97
2019-03-06T09:42:48.324Z,98285.52
2019-03-06T09:45:21.463Z,98287.44
2019-03-06T09:47:52.940Z,98276.92
2019-03-06T09:50:38.537Z,98274.58
2019-03-06T09:53:28.682Z,98281.93
2019-03-06T09:56:02.164Z,98281.56
2019-03-06T09:58:35.961Z,98284.09
2019-03-06T10:01:13.024Z,98285.99
2019-03-06T10:03:44.217Z,98284.09
2019-03-06T10:06:18.228Z,98277.13
2019-03-06T10:11:35.764Z,98254.69
2019-03-06T10:14:19.237Z,98250.86
2019-03-06T10:16:56.531Z,98248.50
2019-03-06T10:19:29.546Z,98249.77
2019-03-06T10:22:02.088Z,98236.98
2019-03-06T10:24:31.921Z,98232.86
2019-03-06T10:27:04.097Z,98226.20
2019-03-06T10:29:34.061Z,98226.40
2019-03-06T10:32:06.731Z,98223.73
2019-03-06T10:34:37.763Z,98219.34
2019-03-06T10:39:37.529Z,98222.36
2019-03-06T10:42:08.449Z,98221.05
2019-03-06T10:44:38.844Z,98220.82
2019-03-06T10:47:19.898Z,98220.95
2019-03-06T10:49:49.600Z,98207.34
2019-03-06T10:52:21.612Z,98200.11
2019-03-06T10:54:51.304Z,98207.08
2019-03-06T10:57:21.518Z,98215.35
2019-03-06T10:59:52.771Z,98217.15
2019-03-06T11:02:22.533Z,98209.03
2019-03-06T11:04:53.793Z,98218.52
2019-03-06T11:07:24.164Z,98201.62
2019-03-06T11:09:53.694Z,98204.98
2019-03-06T11:12:23.440Z,98212.09
2019-03-06T11:14:52.962Z,98204.76
2019-03-06T11:17:24.049Z,98191.81
2019-03-06T11:19:53.869Z,98190.37
2019-03-06T11:22:23.377Z,98177.09
2019-03-06T11:24:54.602Z,98174.05
2019-03-06T11:27:24.101Z,98165.80
2019-03-06T11:29:53.840Z,98162.45
2019-03-06T11:32:23.532Z,98167.33
2019-03-06T11:34:53.092Z,98155.66
2019-03-06T11:37:25.873Z,98159.31
2019-03-06T11:39:57.186Z,98158.28
2019-03-06T11:42:26.829Z,98156.87
2019-03-06T11:44:56.440Z,98144.59
2019-03-06T11:47:26.012Z,98142.32
2019-03-06T11:49:55.600Z,98132.41
2019-03-06T11:52:25.179Z,98125.31
2019-03-06T11:54:54.718Z,98135.23
2019-03-06T11:57:24.680Z,98115.52
2019-03-06T11:59:54.242Z,98101.50
2019-03-06T12:02:23.952Z,98095.39
2019-03-06T12:04:53.504Z,98089.17
2019-03-06T12:07:22.999Z,98075.92
2019-03-06T12:09:52.724Z,98070.02
2019-03-06T12:12:27.305Z,98069.81
2019-03-06T12:14:57.424Z,98066.69
2019-03-06T12:17:27.070Z,98050.92
2019-03-06T12:19:57.193Z,98043.84
2019-03-06T12:22:26.874Z,98037.63
2019-03-06T12:24:56.656Z,98030.28
2019-03-06T12:27:26.383Z,98029.70
2019-03-06T12:29:56.125Z,98034.36
2019-03-06T12:32:27.239Z,98022.75
2019-03-06T12:34:56.724Z,98020.86
2019-03-06T12:37:26.341Z,98018.02
2019-03-06T12:39:57.831Z,98027.23
2019-03-06T12:42:29.106Z,98014.94
2019-03-06T12:44:58.807Z,98016.42
2019-03-06T12:47:29.566Z,98012.92
2019-03-06T12:50:05.689Z,98013.25
2019-03-06T12:52:33.731Z,98010.02
2019-03-06T12:55:07.727Z,98012.88
2019-03-06T12:57:37.505Z,98019.67
2019-03-06T13:00:22.764Z,98024.03
2019-03-06T13:02:53.222Z,98023.37
2019-03-06T13:05:24.955Z,98024.70
2019-03-06T13:07:54.748Z,98018.87
2019-03-06T13:10:24.386Z,98031.25
2019-03-06T13:12:54.211Z,98025.27
2019-03-06T13:15:25.380Z,98027.32
2019-03-06T13:17:56.125Z,98015.99
2019-03-06T13:20:28.842Z,98011.13
2019-03-06T13:22:58.350Z,98011.37
2019-03-06T13:25:27.992Z,98016.70
2019-03-06T13:27:57.398Z,98033.80
2019-03-06T13:30:28.596Z,98022.62
2019-03-06T13:33:13.850Z,98016.56
2019-03-06T13:35:45.303Z,98018.61
2019-03-06T13:38:15.978Z,98017.80
2019-03-06T13:40:46.261Z,98009.09
2019-03-06T13:43:15.780Z,98006.58
2019-03-06T13:45:45.808Z,98001.73
2019-03-06T13:48:15.503Z,97993.27
2019-03-06T13:50:45.264Z,98000.28
2019-03-06T13:53:20.395Z,98001.17
2019-03-06T13:55:46.379Z,97998.56
2019-03-06T13:58:19.208Z,97993.98
2019-03-06T14:00:48.892Z,98002.70
2019-03-06T14:03:18.452Z,98005.05
2019-03-06T14:05:48.149Z,97991.23
2019-03-06T14:08:18.187Z,97986.23
2019-03-06T14:10:48.172Z,97986.33
2019-03-06T14:13:17.643Z,97988.44
2019-03-06T14:15:53.998Z,97989.77
2019-03-06T14:18:26.294Z,97975.94
2019-03-06T14:20:56.100Z,97966.87
2019-03-06T14:23:34.601Z,97965.45
2019-03-06T14:25:57.909Z,97959.16
2019-03-06T14:28:27.565Z,97956.49
2019-03-06T14:30:57.749Z,97950.28
2019-03-06T14:33:27.947Z,97942.41
2019-03-06T14:35:57.774Z,97937.55
2019-03-06T14:38:27.528Z,97925.86
2019-03-06T14:40:58.033Z,97930.58
2019-03-06T14:43:28.941Z,97916.14
2019-03-06T14:45:58.761Z,97916.58
2019-03-06T14:48:28.921Z,97926.69
2019-03-06T14:50:59.227Z,97922.63
2019-03-06T14:53:28.996Z,97916.61
2019-03-06T14:56:00.974Z,97918.01
2019-03-06T14:58:30.943Z,97914.25
2019-03-06T15:01:00.882Z,97910.11
2019-03-06T15:03:30.843Z,97911.62
2019-03-06T15:06:01.387Z,97902.42
2019-03-06T15:08:31.640Z,97893.36
2019-03-06T15:11:01.356Z,97904.48
2019-03-06T15:13:31.798Z,97898.82
2019-03-06T15:16:01.607Z,97896.95
2019-03-06T15:18:35.096Z,97907.13
2019-03-06T15:21:04.899Z,97891.41
2019-03-06T15:23:36.555Z,97895.33
2019-03-06T15:26:06.283Z,97885.92
2019-03-06T15:28:41.267Z,97884.27
2019-03-06T15:31:10.780Z,97882.63
2019-03-06T15:33:40.496Z,97884.70
2019-03-06T15:36:10.212Z,97878.81
2019-03-06T15:38:40.647Z,97881.63
2019-03-06T15:41:11.205Z,97878.00
2019-03-06T15:43:40.767Z,97887.84
2019-03-06T15:46:10.401Z,97891.44
2019-03-06T15:48:40.028Z,97889.30
2019-03-06T15:51:09.712Z,97870.64
2019-03-06T15:53:39.656Z,97887.98
2019-03-06T15:56:09.396Z,97897.52
2019-03-06T15:58:39.098Z,97885.20
2019-03-06T16:01:08.676Z,97888.48
2019-03-06T16:03:38.345Z,97887.79
2019-03-06T16:06:08.378Z,97887.41
2019-03-06T16:08:38.078Z,97867.83
2019-03-06T16:11:08.574Z,97872.77
2019-03-06T16:13:38.127Z,97852.30
2019-03-06T16:16:08.195Z,97864.73
2019-03-06T16:18:37.773Z,97862.13
2019-03-06T16:21:28.768Z,97861.34
2019-03-06T16:23:58.139Z,97858.89
2019-03-06T16:26:27.513Z,97856.59
2019-03-06T16:28:56.875Z,97858.70
2019-03-06T16:31:26.457Z,97859.58
2019-03-06T16:33:55.894Z,97850.05
2019-03-06T16:36:26.890Z,97853.92
2019-03-06T16:38:56.440Z,97854.11
2019-03-06T16:41:25.814Z,97862.45
2019-03-06T16:43:55.526Z,97849.71
2019-03-06T16:46:24.969Z,97850.44
2019-03-06T16:48:54.344Z,97865.85
2019-03-06T16:51:23.781Z,97861.68
2019-03-06T16:53:53.152Z,97848.67
2019-03-06T16:56:23.405Z,97857.62
2019-03-06T16:58:53.084Z,97862.66
2019-03-06T17:01:24.361Z,97850.38
2019-03-06T17:03:53.876Z,97841.30
2019-03-06T17:06:23.414Z,97844.77
2019-03-06T17:08:52.783Z,97841.89
2019-03-06T17:11:22.568Z,97834.81
2019-03-06T17:13:53.562Z,97841.45
2019-03-06T17:16:22.925Z,97833.09
2019-03-06T17:18:52.705Z,97835.80
2019-03-06T17:21:22.150Z,97843.25
2019-03-06T17:23:51.566Z,97838.88
2019-03-06T17:26:20.900Z,97834.45
2019-03-06T17:28:50.346Z,97835.41
2019-03-06T17:31:19.708Z,97830.80
2019-03-06T17:33:49.086Z,97826.08
2019-03-06T17:36:18.546Z,97819.47
2019-03-06T17:38:47.944Z,97822.05
2019-03-06T17:41:17.308Z,97810.52
2019-03-06T17:43:46.712Z,97806.62
2019-03-06T17:46:16.132Z,97804.45
2019-03-06T17:48:45.580Z,97791.80
2019-03-06T17:51:15.008Z,97791.89
2019-03-06T17:53:44.693Z,97802.19
2019-03-06T17:56:14.058Z,97800.05
2019-03-06T17:58:43.430Z,97793.84
2019-03-06T18:01:15.111Z,97797.92
2019-03-06T18:03:51.894Z,97794.55
2019-03-06T18:06:21.510Z,97799.19
2019-03-06T18:08:50.965Z,97786.16
2019-03-06T18:11:20.327Z,97790.55
2019-03-06T18:13:49.697Z,97782.27
2019-03-06T18:16:19.123Z,97783.16
2019-03-06T18:18:48.507Z,97783.23
2019-03-06T18:21:18.294Z,97768.34
2019-03-06T18:23:47.676Z,97776.63
2019-03-06T18:26:17.058Z,97766.87
2019-03-06T18:28:46.427Z,97757.64
2019-03-06T18:31:15.789Z,97752.55
2019-03-06T18:33:45.667Z,97753.17
2019-03-06T18:36:15.031Z,97760.09
2019-03-06T18:38:44.404Z,97753.19
2019-03-06T18:41:13.771Z,97760.25
2019-03-06T18:43:43.212Z,97754.84
2019-03-06T18:46:12.582Z,97749.16
2019-03-06T18:48:41.967Z,97742.74
2019-03-06T18:51:11.333Z,97745.17
2019-03-06T18:53:40.716Z,97736.26
2019-03-06T18:56:10.370Z,97727.56
2019-03-06T18:58:40.369Z,97718.47
2019-03-06T19:01:10.506Z,97725.89
2019-03-06T19:03:40.533Z,97701.53
2019-03-06T19:06:10.555Z,97731.21
2019-03-06T19:08:40.709Z,97727.55
2019-03-06T19:11:17.006Z,97715.69
2019-03-06T19:13:42.075Z,97716.70
2019-03-06T19:16:11.519Z,97723.39
2019-03-06T19:18:41.299Z,97731.20
2019-03-06T19:21:11.621Z,97729.02
2019-03-06T19:23:41.966Z,97725.67
2019-03-06T19:26:12.241Z,97732.73
2019-03-06T19:28:42.031Z,97720.95
2019-03-06T19:31:12.353Z,97696.75
2019-03-06T19:33:42.319Z,97715.95
2019-03-06T19:36:12.505Z,97716.31
2019-03-06T19:38:43.014Z,97720.06
2019-03-06T19:41:13.079Z,97717.88
2019-03-06T19:43:43.180Z,97713.70
2019-03-06T19:46:13.165Z,97726.59
2019-03-06T19:48:43.392Z,97724.92
2019-03-06T19:51:13.341Z,97726.87
2019-03-06T19:53:42.705Z,97724.14
2019-03-06T19:56:12.083Z,97723.50
2019-03-06T19:58:42.375Z,97719.94
2019-03-06T20:01:12.970Z,97713.05
2019-03-06T20:03:42.376Z,97698.91
2019-03-06T20:06:11.832Z,97708.92
2019-03-06T20:08:41.190Z,97711.23
2019-03-06T20:11:10.576Z,97701.56
2019-03-06T20:13:39.937Z,97701.15
2019-03-06T20:16:09.590Z,97688.95
2019-03-06T20:18:38.967Z,97693.25
2019-03-06T20:21:11.165Z,97683.11
2019-03-06T20:23:40.554Z,97677.86
2019-03-06T20:26:13.804Z,97669.09
2019-03-06T20:28:41.056Z,97671.81
2019-03-06T20:31:13.419Z,97663.55
2019-03-06T20:33:42.783Z,97671.46
2019-03-06T20:36:12.174Z,97661.77
2019-03-06T20:38:41.526Z,97670.03
2019-03-06T20:41:10.907Z,97661.29
2019-03-06T20:43:40.661Z,97662.74
2019-03-06T20:46:10.035Z,97659.78
2019-03-06T20:48:39.423Z,97665.52
2019-03-06T20:51:09.065Z,97664.05
2019-03-06T20:53:38.420Z,97654.81
2019-03-06T20:56:07.831Z,97654.94
2019-03-06T20:58:37.218Z,97647.52
2019-03-06T21:01:08.048Z,97657.84
2019-03-06T21:03:37.945Z,97661.03
2019-03-06T21:15:24.836Z,97645.98
2019-03-06T21:17:56.833Z,97647.40
2019-03-06T21:20:29.061Z,97648.17
2019-03-06T21:22:58.440Z,97643.64
2019-03-06T21:25:48.137Z,97636.47
2019-03-06T21:28:12.024Z,97628.59
2019-03-06T21:30:44.774Z,97639.59
2019-03-06T21:33:14.272Z,97633.31
2019-03-06T21:35:44.303Z,97629.61
2019-03-06T21:38:15.538Z,97629.25
2019-03-06T21:40:44.952Z,97630.02
2019-03-06T21:43:14.433Z,97619.66
2019-03-06T21:45:43.811Z,97620.78
2019-03-06T21:48:13.218Z,97598.59
2019-03-06T21:50:42.613Z,97604.50
2019-03-06T21:53:12.321Z,97607.00
2019-03-06T21:55:41.727Z,97606.75
2019-03-06T21:58:11.178Z,97600.55
2019-03-06T22:00:40.789Z,97599.19
2019-03-06T22:03:10.188Z,97597.00
2019-03-06T22:05:39.591Z,97597.12
2019-03-06T22:08:09.313Z,97603.64
2019-03-06T22:10:38.868Z,97599.02
2019-03-06T22:13:08.347Z,97586.14
2019-03-06T22:15:57.328Z,97584.33
2019-03-06T22:18:26.782Z,97578.52
2019-03-06T22:20:56.146Z,97578.28
2019-03-06T22:23:25.531Z,97578.34
2019-03-06T22:25:55.262Z,97572.16
2019-03-06T22:28:24.619Z,97573.91
2019-03-06T22:30:53.976Z,97544.94
2019-03-06T22:33:25.216Z,97559.05
2019-03-06T22:35:54.494Z,97555.96
2019-03-06T22:38:23.894Z,97550.00
2019-03-06T22:40:53.243Z,97549.34
2019-03-06T22:43:22.624Z,97554.09
2019-03-06T22:45:51.984Z,97552.10
2019-03-06T22:48:21.359Z,97546.21
2019-03-06T22:50:50.720Z,97545.85
2019-03-06T22:53:21.095Z,97528.58
2019-03-06T22:55:50.895Z,97529.73
2019-03-06T22:58:20.825Z,97535.16
2019-03-06T23:00:58.961Z,97531.82
2019-03-06T23:03:28.693Z,97517.41
2019-03-06T23:05:58.100Z,97517.70
2019-03-06T23:08:27.461Z,97521.80
2019-03-06T23:10:56.839Z,97511.98
2019-03-06T23:13:26.386Z,97503.73
2019-03-06T23:15:56.022Z,97510.83
2019-03-06T23:18:25.371Z,97499.55
2019-03-06T23:20:54.795Z,97495.78
2019-03-06T23:23:24.163Z,97491.20
2019-03-06T23:25:53.543Z,97484.75
2019-03-06T23:28:22.895Z,97474.81
2019-03-06T23:30:52.272Z,97467.67
2019-03-06T23:33:21.637Z,97463.28
2019-03-06T23:35:51.261Z,97460.27
2019-03-06T23:38:21.450Z,97444.06
2019-03-06T23:40:51.516Z,97442.53
2019-03-06T23:43:21.526Z,97444.03
2019-03-06T23:45:51.716Z,97435.31
2019-03-06T23:48:21.769Z,97426.97
2019-03-06T23:50:52.059Z,97431.43
2019-03-06T23:53:23.217Z,97432.06
2019-03-06T23:55:52.878Z,97428.09
2019-03-06T23:58:22.222Z,97437.66
